createdAt,value
2017-06-20T00:01:48.418Z,5.87
2017-06-20T00:04:15.903Z,7.40
2017-06-20T00:06:44.174Z,6.70
2017-06-20T00:09:12.410Z,6.40
2017-06-20T00:11:39.911Z,7.03
2017-06-20T00:14:08.150Z,6.90
2017-06-20T00:16:35.643Z,6.90
2017-06-20T00:19:03.114Z,7.83
2017-06-20T00:21:30.603Z,6.90
2017-06-20T00:23:58.082Z,6.80
2017-06-20T00:26:25.578Z,6.40
2017-06-20T00:28:53.054Z,6.90
2017-06-20T00:31:20.543Z,6.13
2017-06-20T00:33:48.018Z,6.20
2017-06-20T00:36:16.286Z,6.30
2017-06-20T00:38:43.772Z,6.30
2017-06-20T00:41:11.263Z,6.10
2017-06-20T00:43:38.733Z,7.37
2017-06-20T00:46:07.043Z,6.77
2017-06-20T00:48:34.554Z,6.40
2017-06-20T00:51:02.021Z,9.43
2017-06-20T00:53:29.510Z,7.07
2017-06-20T00:55:57.003Z,7.00
2017-06-20T00:58:24.506Z,7.83
2017-06-20T01:00:52.744Z,6.70
2017-06-20T01:03:20.238Z,6.30
2017-06-20T01:05:47.714Z,6.60
2017-06-20T01:08:15.210Z,7.00
2017-06-20T01:10:42.688Z,6.90
2017-06-20T01:13:10.958Z,6.20
2017-06-20T01:15:39.201Z,6.60
2017-06-20T01:18:06.691Z,7.27
2017-06-20T01:20:34.176Z,6.60
2017-06-20T01:23:01.671Z,7.40
2017-06-20T01:25:29.155Z,7.67
2017-06-20T01:27:57.395Z,7.17
2017-06-20T01:30:24.887Z,6.80
2017-06-20T01:32:53.130Z,6.70
2017-06-20T01:35:20.625Z,7.47
2017-06-20T01:37:48.102Z,7.03
2017-06-20T01:40:15.596Z,6.70
2017-06-20T01:42:43.084Z,6.87
2017-06-20T01:45:10.579Z,8.03
2017-06-20T01:47:38.057Z,8.30
2017-06-20T01:50:05.564Z,6.20
2017-06-20T01:52:33.046Z,7.37
2017-06-20T01:55:00.518Z,6.30
2017-06-20T01:57:28.010Z,6.70
2017-06-20T01:59:55.491Z,7.87
2017-06-20T02:02:22.990Z,7.37
2017-06-20T02:04:50.462Z,7.10
2017-06-20T02:07:17.957Z,7.10
2017-06-20T02:09:45.426Z,8.10
2017-06-20T02:12:12.923Z,6.80
2017-06-20T02:14:40.394Z,7.60
2017-06-20T02:17:07.874Z,6.67
2017-06-20T02:19:35.366Z,6.87
2017-06-20T02:22:02.838Z,7.30
2017-06-20T02:24:30.328Z,6.20
2017-06-20T02:26:57.806Z,6.80
2017-06-20T02:29:25.307Z,7.40
2017-06-20T02:31:53.551Z,6.97
2017-06-20T02:34:21.042Z,7.07
2017-06-20T02:36:48.518Z,7.40
2017-06-20T02:39:16.010Z,7.53
2017-06-20T02:41:43.486Z,7.10
2017-06-20T02:44:11.749Z,6.93
2017-06-20T02:46:39.226Z,7.90
2017-06-20T02:49:06.730Z,7.60
2017-06-20T02:51:34.206Z,7.30
2017-06-20T02:54:01.710Z,7.20
2017-06-20T02:56:29.182Z,9.30
2017-06-20T02:58:56.658Z,7.63
2017-06-20T03:01:24.150Z,8.40
2017-06-20T03:03:52.399Z,8.37
2017-06-20T03:06:19.893Z,8.23
2017-06-20T03:08:47.370Z,7.40
2017-06-20T03:11:14.871Z,8.77
2017-06-20T03:13:42.354Z,7.60
2017-06-20T03:16:09.861Z,9.57
2017-06-20T03:18:37.347Z,8.27
2017-06-20T03:21:05.611Z,8.93
2017-06-20T03:23:33.091Z,8.30
2017-06-20T03:26:00.566Z,9.17
2017-06-20T03:28:28.066Z,7.87
2017-06-20T03:30:55.538Z,7.80
2017-06-20T03:33:23.807Z,8.77
2017-06-20T03:35:52.054Z,8.10
2017-06-20T03:38:19.551Z,8.73
2017-06-20T03:40:47.027Z,7.83
2017-06-20T03:43:14.547Z,8.63
2017-06-20T03:45:42.796Z,8.70
2017-06-20T03:48:10.282Z,10.30
2017-06-20T03:50:38.570Z,7.70
2017-06-20T03:53:06.046Z,8.23
2017-06-20T03:55:33.539Z,8.83
2017-06-20T03:58:01.025Z,9.23
2017-06-20T04:00:28.523Z,8.20
2017-06-20T04:02:56.000Z,8.53
2017-06-20T04:05:23.496Z,9.60
2017-06-20T04:07:50.974Z,8.03
2017-06-20T04:10:18.472Z,10.80
2017-06-20T04:12:45.950Z,8.00
2017-06-20T04:15:13.456Z,8.63
2017-06-20T04:17:40.931Z,9.70
2017-06-20T04:20:08.404Z,8.73
2017-06-20T04:22:36.670Z,7.80
2017-06-20T04:25:04.147Z,9.20
2017-06-20T04:27:31.638Z,9.93
2017-06-20T04:29:59.129Z,11.00
2017-06-20T04:32:26.631Z,9.60
2017-06-20T04:34:54.118Z,8.43
2017-06-20T04:37:21.611Z,9.33
2017-06-20T04:39:49.856Z,8.77
2017-06-20T04:42:17.355Z,9.20
2017-06-20T04:44:44.830Z,9.20
2017-06-20T04:47:12.307Z,10.53
2017-06-20T04:49:39.855Z,8.50
2017-06-20T04:52:07.341Z,9.50
2017-06-20T04:54:34.842Z,10.30
2017-06-20T04:57:02.344Z,9.00
2017-06-20T04:59:29.834Z,9.57
2017-06-20T05:01:57.328Z,9.60
2017-06-20T05:04:24.829Z,9.77
2017-06-20T05:06:53.075Z,9.27
2017-06-20T05:09:20.572Z,9.57
2017-06-20T05:11:48.055Z,9.40
2017-06-20T05:14:15.775Z,9.20
2017-06-20T05:16:44.015Z,10.73
2017-06-20T05:19:11.489Z,9.53
2017-06-20T05:21:39.751Z,9.63
2017-06-20T05:24:07.229Z,9.50
2017-06-20T05:26:35.488Z,9.47
2017-06-20T05:29:03.743Z,12.43
2017-06-20T05:31:31.247Z,11.60
2017-06-20T05:33:58.724Z,8.40
2017-06-20T05:36:26.218Z,9.27
2017-06-20T05:38:53.693Z,9.20
2017-06-20T05:41:21.183Z,9.63
2017-06-20T05:43:48.663Z,8.20
2017-06-20T05:46:16.160Z,8.40
2017-06-20T05:48:43.636Z,21.20
2017-06-20T05:51:11.108Z,8.13
2017-06-20T05:53:38.608Z,9.00
2017-06-20T05:56:06.848Z,9.10
2017-06-20T05:58:34.339Z,9.10
2017-06-20T06:01:02.579Z,8.63
2017-06-20T06:03:30.076Z,10.53
2017-06-20T06:05:58.994Z,9.20
2017-06-20T06:08:26.506Z,8.43
2017-06-20T06:10:53.990Z,10.43
2017-06-20T06:13:21.480Z,8.53
2017-06-20T06:15:48.953Z,8.00
2017-06-20T06:18:16.444Z,7.13
2017-06-20T06:20:43.927Z,7.00
2017-06-20T06:23:11.430Z,8.73
2017-06-20T06:25:38.939Z,8.53
2017-06-20T06:28:06.518Z,7.60
2017-06-20T06:30:34.012Z,7.07
2017-06-20T06:33:01.487Z,8.10
2017-06-20T06:35:28.983Z,7.67
2017-06-20T06:37:56.458Z,7.60
2017-06-20T06:40:24.728Z,7.40
2017-06-20T06:42:52.198Z,6.90
2017-06-20T06:45:20.474Z,8.30
2017-06-20T06:47:48.716Z,8.07
2017-06-20T06:50:16.244Z,11.80
2017-06-20T06:52:43.719Z,7.90
2017-06-20T06:55:11.200Z,6.63
2017-06-20T06:57:39.459Z,6.83
2017-06-20T07:00:06.945Z,7.40
2017-06-20T07:02:34.450Z,8.20
2017-06-20T07:05:01.936Z,6.70
2017-06-20T07:07:30.195Z,6.50
2017-06-20T07:09:57.667Z,7.50
2017-06-20T07:12:25.167Z,7.43
2017-06-20T07:14:52.646Z,6.93
2017-06-20T07:17:20.151Z,7.33
2017-06-20T07:19:47.624Z,7.50
2017-06-20T07:22:15.096Z,7.77
2017-06-20T07:24:42.596Z,7.57
2017-06-20T07:27:10.839Z,8.60
2017-06-20T07:29:38.343Z,8.10
2017-06-20T07:32:05.824Z,9.17
2017-06-20T07:34:33.320Z,9.27
2017-06-20T07:37:00.795Z,14.67
2017-06-20T07:39:29.051Z,8.20
2017-06-20T07:41:57.320Z,10.00
2017-06-20T07:44:24.815Z,9.83
2017-06-20T07:46:52.299Z,8.93
2017-06-20T07:49:19.806Z,11.30
2017-06-20T07:51:47.278Z,7.83
2017-06-20T07:54:14.759Z,12.10
2017-06-20T07:56:42.252Z,8.80
2017-06-20T07:59:10.496Z,7.77
2017-06-20T08:01:37.987Z,9.30
2017-06-20T08:04:06.235Z,8.50
2017-06-20T08:06:33.727Z,8.73
2017-06-20T08:09:01.210Z,8.70
2017-06-20T08:11:28.716Z,9.73
2017-06-20T08:13:56.202Z,10.03
2017-06-20T08:16:23.708Z,9.77
2017-06-20T08:18:51.188Z,11.83
2017-06-20T08:21:25.096Z,10.40
2017-06-20T08:23:53.335Z,7.87
2017-06-20T08:26:20.811Z,7.40
2017-06-20T08:28:49.067Z,7.20
2017-06-20T08:31:16.542Z,6.43
2017-06-20T08:33:44.799Z,8.33
2017-06-20T08:36:12.283Z,6.37
2017-06-20T08:38:40.541Z,7.30
2017-06-20T08:41:08.786Z,6.50
2017-06-20T08:43:36.282Z,9.53
2017-06-20T08:46:03.775Z,6.60
2017-06-20T08:48:31.267Z,7.70
2017-06-20T08:50:58.746Z,7.20
2017-06-20T08:53:26.231Z,7.00
2017-06-20T08:55:53.723Z,6.63
2017-06-20T08:58:21.194Z,7.20
2017-06-20T09:00:49.460Z,8.40
2017-06-20T09:03:16.944Z,6.17
2017-06-20T09:05:44.439Z,6.93
2017-06-20T09:08:11.923Z,10.47
2017-06-20T09:10:39.420Z,17.37
2017-06-20T09:13:06.891Z,8.60
2017-06-20T09:15:34.387Z,5.40
2017-06-20T09:18:01.876Z,6.40
2017-06-20T09:20:29.381Z,6.20
2017-06-20T09:22:56.858Z,5.57
2017-06-20T09:25:25.118Z,6.47
2017-06-20T09:27:52.598Z,5.77
2017-06-20T09:30:20.842Z,7.30
2017-06-20T09:32:48.334Z,6.97
2017-06-20T09:35:15.815Z,6.60
2017-06-20T09:37:43.312Z,9.30
2017-06-20T09:40:11.590Z,5.80
2017-06-20T09:42:39.850Z,5.70
2017-06-20T09:45:07.327Z,6.07
2017-06-20T09:47:35.591Z,6.30
2017-06-20T09:50:03.841Z,5.20
2017-06-20T09:52:31.353Z,5.90
2017-06-20T09:54:58.832Z,5.47
2017-06-20T09:57:26.319Z,5.80
2017-06-20T09:59:53.815Z,5.10
2017-06-20T10:02:21.299Z,4.97
2017-06-20T10:04:48.799Z,5.40
2017-06-20T10:07:17.058Z,7.27
2017-06-20T10:09:44.553Z,7.27
2017-06-20T10:12:12.042Z,11.20
2017-06-20T10:14:39.540Z,8.13
2017-06-20T10:17:07.012Z,5.60
2017-06-20T10:19:34.506Z,5.70
2017-06-20T10:22:01.990Z,5.67
2017-06-20T10:24:29.470Z,5.20
2017-06-20T10:26:56.981Z,5.87
2017-06-20T10:29:24.452Z,5.33
2017-06-20T10:31:51.944Z,8.73
2017-06-20T10:34:19.426Z,4.70
2017-06-20T10:36:46.923Z,9.80
2017-06-20T10:39:15.167Z,5.83
2017-06-20T10:41:42.662Z,6.03
2017-06-20T10:44:10.155Z,5.90
2017-06-20T10:46:37.643Z,7.63
2017-06-20T10:49:05.119Z,6.60
2017-06-20T10:51:33.363Z,5.90
2017-06-20T10:54:00.859Z,8.30
2017-06-20T10:56:28.359Z,5.50
2017-06-20T10:58:55.850Z,5.03
2017-06-20T11:01:23.326Z,4.87
2017-06-20T11:03:50.827Z,5.37
2017-06-20T11:06:18.319Z,5.20
2017-06-20T11:08:46.574Z,6.33
2017-06-20T11:11:14.059Z,5.30
2017-06-20T11:13:42.323Z,5.67
2017-06-20T11:16:10.595Z,5.60
2017-06-20T11:18:38.875Z,5.10
2017-06-20T11:21:07.111Z,5.73
2017-06-20T11:23:34.587Z,6.03
2017-06-20T11:26:02.853Z,5.10
2017-06-20T11:28:30.328Z,6.03
2017-06-20T11:30:58.591Z,9.43
2017-06-20T11:33:26.840Z,5.70
2017-06-20T11:35:54.335Z,5.90
2017-06-20T11:38:21.808Z,5.03
2017-06-20T11:40:49.307Z,5.47
2017-06-20T11:43:16.791Z,5.67
2017-06-20T11:45:45.064Z,7.20
2017-06-20T11:48:13.299Z,4.67
2017-06-20T11:50:40.794Z,5.60
2017-06-20T11:53:09.030Z,5.33
2017-06-20T11:55:36.511Z,6.00
2017-06-20T11:58:04.770Z,5.27
2017-06-20T12:00:32.244Z,6.50
2017-06-20T12:02:59.735Z,5.10
2017-06-20T12:05:27.206Z,4.57
2017-06-20T12:07:54.699Z,5.27
2017-06-20T12:10:22.943Z,5.60
2017-06-20T12:12:50.439Z,5.23
2017-06-20T12:15:18.690Z,4.97
2017-06-20T12:17:46.199Z,5.57
2017-06-20T12:20:13.683Z,5.40
2017-06-20T12:22:41.159Z,4.80
2017-06-20T12:25:08.659Z,6.07
2017-06-20T12:27:36.144Z,5.40
2017-06-20T12:30:03.653Z,5.77
2017-06-20T12:32:31.136Z,5.00
2017-06-20T12:34:58.644Z,5.60
2017-06-20T12:37:26.879Z,5.27
2017-06-20T12:39:54.379Z,5.13
2017-06-20T12:42:22.830Z,5.80
2017-06-20T12:44:50.339Z,5.97
2017-06-20T12:47:17.811Z,5.70
2017-06-20T12:49:45.307Z,7.37
2017-06-20T12:52:13.567Z,5.67
2017-06-20T12:54:41.044Z,5.13
2017-06-20T12:57:09.300Z,5.67
2017-06-20T12:59:36.776Z,5.50
2017-06-20T13:02:05.034Z,5.03
2017-06-20T13:04:33.271Z,5.80
2017-06-20T13:07:00.766Z,5.77
2017-06-20T13:09:28.247Z,5.10
2017-06-20T13:11:55.743Z,5.00
2017-06-20T13:14:23.221Z,5.30
2017-06-20T13:16:50.716Z,5.53
2017-06-20T13:19:18.191Z,5.17
2017-06-20T13:21:45.668Z,5.07
2017-06-20T13:24:13.166Z,5.70
2017-06-20T13:26:40.635Z,5.77
2017-06-20T13:29:08.131Z,5.80
2017-06-20T13:31:35.607Z,5.07
2017-06-20T13:34:03.863Z,5.50
2017-06-20T13:36:31.353Z,6.73
2017-06-20T13:38:58.844Z,5.73
2017-06-20T13:41:26.330Z,5.90
2017-06-20T13:43:53.823Z,5.93
2017-06-20T13:46:21.300Z,5.47
2017-06-20T13:48:48.791Z,6.17
2017-06-20T13:51:16.279Z,9.43
2017-06-20T13:53:43.767Z,4.97
2017-06-20T13:56:11.263Z,5.53
2017-06-20T13:58:38.738Z,7.67
2017-06-20T14:01:06.999Z,6.03
2017-06-20T14:03:34.471Z,6.23
2017-06-20T14:06:01.958Z,5.80
2017-06-20T14:08:29.427Z,5.17
2017-06-20T14:10:56.917Z,5.60
2017-06-20T14:13:25.160Z,7.57
2017-06-20T14:15:52.655Z,8.03
2017-06-20T14:18:20.123Z,7.20
2017-06-20T14:20:47.639Z,8.00
2017-06-20T14:23:15.119Z,8.17
2017-06-20T14:25:42.595Z,5.77
2017-06-20T14:28:10.091Z,8.27
2017-06-20T14:30:37.571Z,6.40
2017-06-20T14:33:05.071Z,6.20
2017-06-20T14:35:32.549Z,5.80
2017-06-20T14:38:00.034Z,5.60
2017-06-20T14:40:27.503Z,5.63
2017-06-20T14:42:55.007Z,6.10
2017-06-20T14:45:22.486Z,9.27
2017-06-20T14:47:49.963Z,7.20
2017-06-20T14:50:18.228Z,5.70
2017-06-20T14:52:45.702Z,5.70
2017-06-20T14:55:13.192Z,5.23
2017-06-20T14:57:40.666Z,5.73
2017-06-20T15:00:08.164Z,6.50
2017-06-20T15:02:35.641Z,6.27
2017-06-20T15:05:03.139Z,5.53
2017-06-20T15:07:30.610Z,5.90
2017-06-20T15:09:58.867Z,5.63
2017-06-20T15:12:26.343Z,6.00
2017-06-20T15:14:54.600Z,6.43
2017-06-20T15:17:22.074Z,5.80
2017-06-20T15:19:50.334Z,6.70
2017-06-20T15:22:18.575Z,5.93
2017-06-20T15:24:46.054Z,6.23
2017-06-20T15:27:13.560Z,6.63
2017-06-20T15:29:41.043Z,6.27
2017-06-20T15:32:08.538Z,6.30
2017-06-20T15:34:36.787Z,6.50
2017-06-20T15:37:04.275Z,5.60
2017-06-20T15:39:31.754Z,6.03
2017-06-20T15:41:59.251Z,6.17
2017-06-20T15:44:26.729Z,5.90
2017-06-20T15:46:54.982Z,6.90
2017-06-20T15:49:22.454Z,6.50
2017-06-20T15:51:50.710Z,6.20
2017-06-20T15:54:18.192Z,5.83
2017-06-20T15:56:45.687Z,5.70
2017-06-20T15:59:13.166Z,6.77
2017-06-20T16:01:40.670Z,5.83
2017-06-20T16:04:08.164Z,6.20
2017-06-20T16:06:35.643Z,5.70
2017-06-20T16:09:03.907Z,5.27
2017-06-20T16:11:31.382Z,5.90
2017-06-20T16:13:59.639Z,5.67
2017-06-20T16:16:27.118Z,5.43
2017-06-20T16:18:54.642Z,5.53
2017-06-20T16:21:22.116Z,5.67
2017-06-20T16:23:50.370Z,6.33
2017-06-20T16:26:17.844Z,5.43
2017-06-20T16:28:46.103Z,5.00
2017-06-20T16:31:13.584Z,5.70
2017-06-20T16:33:41.078Z,5.80
2017-06-20T16:36:08.559Z,6.07
2017-06-20T16:38:36.059Z,6.70
2017-06-20T16:41:03.534Z,6.33
2017-06-20T16:43:31.019Z,6.47
2017-06-20T16:45:58.510Z,6.17
2017-06-20T16:48:25.994Z,6.93
2017-06-20T16:50:53.478Z,5.67
2017-06-20T16:53:20.959Z,6.73
2017-06-20T16:55:49.226Z,6.43
2017-06-20T16:58:17.469Z,6.17
2017-06-20T17:00:44.964Z,5.93
2017-06-20T17:03:13.203Z,5.80
2017-06-20T17:05:40.695Z,5.20
2017-06-20T17:08:08.932Z,5.17
2017-06-20T17:10:36.415Z,5.33
2017-06-20T17:13:04.675Z,5.20
2017-06-20T17:15:32.158Z,5.73
2017-06-20T17:17:59.659Z,6.60
2017-06-20T17:20:27.146Z,6.00
2017-06-20T17:22:55.402Z,5.50
2017-06-20T17:25:22.874Z,5.20
2017-06-20T17:27:51.134Z,5.00
2017-06-20T17:30:18.607Z,5.60
2017-06-20T17:32:46.866Z,4.97
2017-06-20T17:35:14.347Z,5.17
2017-06-20T17:37:41.839Z,5.40
2017-06-20T17:40:09.311Z,5.13
2017-06-20T17:42:36.812Z,5.20
2017-06-20T17:45:04.296Z,5.37
2017-06-20T17:47:31.774Z,5.00
2017-06-20T17:49:59.273Z,6.77
2017-06-20T17:52:26.760Z,5.03
2017-06-20T17:54:54.254Z,5.67
2017-06-20T17:57:21.730Z,5.83
2017-06-20T17:59:49.219Z,5.60
2017-06-20T18:02:16.695Z,6.00
2017-06-20T18:04:44.183Z,5.40
2017-06-20T18:07:12.430Z,5.63
2017-06-20T18:09:39.924Z,6.30
2017-06-20T18:12:08.163Z,5.50
2017-06-20T18:14:35.655Z,4.87
2017-06-20T18:17:03.134Z,6.40
2017-06-20T18:19:30.631Z,5.60
2017-06-20T18:21:58.098Z,5.73
2017-06-20T18:24:26.338Z,6.57
2017-06-20T18:26:53.865Z,6.40
2017-06-20T18:29:21.343Z,6.17
2017-06-20T18:31:48.830Z,9.03
2017-06-20T18:34:17.074Z,6.10
2017-06-20T18:36:44.642Z,6.87
2017-06-20T18:39:12.126Z,6.17
2017-06-20T18:41:40.410Z,5.20
2017-06-20T18:44:08.649Z,6.20
2017-06-20T18:46:36.138Z,6.60
2017-06-20T18:49:03.614Z,7.20
2017-06-20T18:51:31.103Z,6.53
2017-06-20T18:53:58.583Z,6.93
2017-06-20T18:56:26.066Z,7.17
2017-06-20T18:58:53.539Z,7.93
2017-06-20T19:01:21.039Z,8.43
2017-06-20T19:03:48.514Z,7.70
2017-06-20T19:06:15.988Z,8.67
2017-06-20T19:08:43.503Z,8.77
2017-06-20T19:11:10.993Z,9.30
2017-06-20T19:13:38.496Z,9.00
2017-06-20T19:16:05.970Z,8.47
2017-06-20T19:18:33.459Z,8.50
2017-06-20T19:21:00.941Z,9.93
2017-06-20T19:23:28.442Z,8.30
2017-06-20T19:25:56.688Z,10.33
2017-06-20T19:28:24.166Z,9.17
2017-06-20T19:30:52.427Z,9.70
2017-06-20T19:33:19.911Z,9.53
2017-06-20T19:35:47.408Z,12.73
2017-06-20T19:38:14.923Z,9.23
2017-06-20T19:40:42.428Z,9.63
2017-06-20T19:43:09.901Z,8.50
2017-06-20T19:45:37.396Z,12.33
2017-06-20T19:48:04.870Z,10.47
2017-06-20T19:50:32.366Z,9.73
2017-06-20T19:52:59.843Z,10.60
2017-06-20T19:55:28.130Z,12.20
2017-06-20T19:57:55.611Z,11.53
2017-06-20T20:00:23.110Z,9.63
2017-06-20T20:02:51.358Z,10.77
2017-06-20T20:05:18.839Z,10.33
2017-06-20T20:07:47.121Z,9.30
2017-06-20T20:10:15.367Z,9.63
2017-06-20T20:12:42.862Z,9.83
2017-06-20T20:15:10.330Z,12.93
2017-06-20T20:17:37.835Z,12.57
2017-06-20T20:20:05.332Z,11.10
2017-06-20T20:22:32.823Z,9.97
2017-06-20T20:25:00.303Z,10.40
2017-06-20T20:27:27.808Z,10.70
2017-06-20T20:29:55.288Z,11.33
2017-06-20T20:32:22.779Z,9.30
2017-06-20T20:34:51.030Z,12.97
2017-06-20T20:37:18.514Z,11.77
2017-06-20T20:39:46.775Z,11.87
2017-06-20T20:42:14.254Z,10.37
2017-06-20T20:44:41.754Z,16.50
2017-06-20T20:47:09.231Z,11.20
2017-06-20T20:49:36.726Z,9.67
2017-06-20T20:52:04.206Z,10.70
2017-06-20T20:54:31.702Z,9.73
2017-06-20T20:56:59.957Z,10.87
2017-06-20T20:59:27.446Z,9.70
2017-06-20T21:01:55.687Z,11.60
2017-06-20T21:04:23.186Z,11.13
2017-06-20T21:06:50.670Z,10.43
2017-06-20T21:09:18.174Z,11.40
2017-06-20T21:11:46.418Z,10.23
2017-06-20T21:14:13.920Z,11.60
2017-06-20T21:16:41.395Z,10.63
2017-06-20T21:19:08.883Z,10.00
2017-06-20T21:21:36.362Z,13.10
2017-06-20T21:24:03.842Z,10.30
2017-06-20T21:26:31.335Z,10.93
2017-06-20T21:28:58.831Z,10.33
2017-06-20T21:31:26.326Z,10.07
2017-06-20T21:33:53.809Z,10.43
2017-06-20T21:36:21.302Z,10.73
2017-06-20T21:38:49.555Z,11.30
2017-06-20T21:41:17.050Z,10.33
2017-06-20T21:43:44.539Z,11.57
2017-06-20T21:46:12.032Z,11.53
2017-06-20T21:48:40.276Z,11.03
2017-06-20T21:51:07.776Z,11.20
2017-06-20T21:53:35.251Z,10.43
2017-06-20T21:56:02.739Z,11.03
2017-06-20T21:58:30.246Z,11.90
2017-06-20T22:00:57.723Z,10.63
2017-06-20T22:03:25.232Z,10.80
2017-06-20T22:05:53.479Z,10.20
2017-06-20T22:08:20.977Z,10.20
2017-06-20T22:10:48.457Z,9.20
2017-06-20T22:13:15.957Z,10.80
2017-06-20T22:15:43.440Z,12.40
2017-06-20T22:18:10.934Z,10.50
2017-06-20T22:20:38.418Z,10.57
2017-06-20T22:23:05.895Z,10.10
2017-06-20T22:25:34.158Z,11.13
2017-06-20T22:28:01.632Z,10.50
2017-06-20T22:30:29.124Z,9.90
2017-06-20T22:32:56.607Z,11.27
2017-06-20T22:35:24.100Z,10.43
2017-06-20T22:37:51.618Z,10.50
2017-06-20T22:40:19.118Z,9.67
2017-06-20T22:42:46.590Z,9.70
2017-06-20T22:45:14.084Z,9.13
2017-06-20T22:47:41.554Z,8.70
2017-06-20T22:50:09.047Z,9.77
2017-06-20T22:52:36.527Z,11.30
2017-06-20T22:55:04.019Z,9.03
2017-06-20T22:57:32.263Z,8.90
2017-06-20T22:59:59.751Z,9.83
2017-06-20T23:02:27.986Z,8.53
2017-06-20T23:04:55.462Z,9.10
2017-06-20T23:07:22.950Z,8.50
2017-06-20T23:09:50.429Z,9.67
2017-06-20T23:12:17.919Z,9.63
2017-06-20T23:14:45.398Z,8.37
2017-06-20T23:17:13.654Z,7.97
2017-06-20T23:19:41.904Z,9.27
2017-06-20T23:22:09.429Z,8.80
2017-06-20T23:24:36.910Z,7.53
2017-06-20T23:27:04.411Z,9.33
2017-06-20T23:29:31.885Z,7.97
